Alpha Friendship — SVAV9 — position and weather

sailwx.info

Track history (hours):
 
Tides and Currents Weather Stations Pressure Air Temp Water Temp Dewpoint Dewpoint Depression Visibility Wind Speed Wind Dir Waves Ship Positions

Alpha Friendship

Last reported at 2015-Mar-28 15:33 UTC. Time now 2015-Mar-28 16:04 UTC.
Position S 33°03' E 152°10'.

Length 280 m; draft 8.6 m.

Type: Cargo ship. MMSI: 240965000.

Date/timePositionNaut miles runAvg speedWind from/ knotsBaromVisibWave heightAir tempDewpointWater temp
2015-Mar-28 15:33S 33°03' E 152°10'1 0.9
2015-Mar-28 14:33S 33°04' E 152°10'1 0.9
2015-Mar-28 13:33S 33°05' E 152°09'1 1.0
2015-Mar-28 12:34S 33°06' E 152°09'1 0.9
2015-Mar-28 11:33S 33°07' E 152°09'1 0.9
2015-Mar-28 10:33S 33°07' E 152°09'1 0.7
2015-Mar-28 09:33S 33°08' E 152°10'1 0.9
2015-Mar-28 08:33S 33°09' E 152°10'1 0.9
2015-Mar-28 07:33S 33°09' E 152°11'1 1.0
2015-Mar-28 06:33S 33°10' E 152°12'1 1.0
2015-Mar-28 05:33S 33°11' E 152°13'1 0.6
2015-Mar-28 04:33S 33°11' E 152°13'1 0.8
2015-Mar-28 03:33S 33°12' E 152°12'1 1.0
2015-Mar-28 02:33S 33°13' E 152°12'1 1.2
2015-Mar-28 01:28S 33°14' E 152°12'2 1.2
2015-Mar-28 00:04S 33°15' E 152°10'9 9.0
2015-Mar-27 23:04S 33°07' E 152°05'612.4
2015-Mar-27 22:33S 33°01' E 152°02'1 0.6
2015-Mar-27 21:33S 33°01' E 152°02'2 1.9
2015-Mar-27 20:33S 33°03' E 152°02'2 1.7
2015-Mar-27 19:33S 33°04' E 152°02'2 1.6
2015-Mar-27 18:33S 33°06' E 152°03'2 1.6
2015-Mar-27 17:33S 33°07' E 152°03'2 1.6
2015-Mar-27 16:33S 33°09' E 152°03'2 1.6
2015-Mar-27 15:33S 33°10' E 152°04'1 0.6
2015-Mar-27 14:33S 33°11' E 152°04'0 0.3
2015-Mar-27 13:33S 33°11' E 152°04'0 0.4
2015-Mar-27 12:33S 33°11' E 152°04'0 0.4
2015-Mar-27 11:33S 33°12' E 152°05'1 0.6
2015-Mar-27 10:33S 33°12' E 152°05'1 0.6
2015-Mar-27 09:33S 33°13' E 152°05'0 0.5
2015-Mar-27 08:33S 33°13' E 152°06'0 0.5
2015-Mar-27 07:33S 33°14' E 152°06'0 0.3
2015-Mar-27 06:33S 33°14' E 152°06'1 0.6
2015-Mar-27 05:33S 33°14' E 152°07'0 0.4
2015-Mar-27 04:27S 33°14' E 152°08'0 0.4
2015-Mar-27 03:31S 33°14' E 152°08'1 0.8
2015-Mar-27 02:33S 33°14' E 152°09'1 0.6
2015-Mar-27 01:29S 33°14' E 152°09'1 0.5
2015-Mar-27 00:11S 33°15' E 152°10'1 0.6
2015-Mar-26 23:13S 33°15' E 152°09'6 5.7
2015-Mar-26 22:08S 33°09' E 152°06'712.4
2015-Mar-26 21:33S 33°02' E 152°04'3 2.6
2015-Mar-26 20:33S 32°59' E 152°03'2 1.9
2015-Mar-26 19:33S 33°01' E 152°03'2 1.9
2015-Mar-26 18:33S 33°03' E 152°02'2 1.9
2015-Mar-26 17:33S 33°05' E 152°02'2 1.9
2015-Mar-26 16:33S 33°07' E 152°01'2 1.9
2015-Mar-26 15:33S 33°09' E 152°00'2 1.9
2015-Mar-26 14:33S 33°10' E 151°59'2 1.7
2015-Mar-26 13:33S 33°12' E 151°59'1 1.0
2015-Mar-26 12:33S 33°13' E 151°59'1 1.1
2015-Mar-26 11:33S 33°14' E 151°59'1 1.3
2015-Mar-26 10:33S 33°14' E 152°01'2 1.4
2015-Mar-26 09:11S 33°14' E 152°03'1 1.8
2015-Mar-26 08:33S 33°14' E 152°05'5 4.8
2015-Mar-26 07:33S 33°09' E 152°04'1111.1
2015-Mar-26 06:33S 32°58' E 151°60'1 0.7
2015-Mar-26 05:33S 32°59' E 152°00'1 0.6
2015-Mar-26 04:34S 32°59' E 152°01'1 0.5
2015-Mar-26 03:34S 32°60' E 152°01'1 0.6
2015-Mar-26 02:33S 33°00' E 152°01'0 0.4
2015-Mar-26 01:33S 33°01' E 152°01'0 0.4
2015-Mar-26 00:33S 33°01' E 152°01'0 0.2
2015-Mar-25 23:33S 33°02' E 152°01'0 0.2
2015-Mar-25 22:33S 33°02' E 152°01'0 0.3
2015-Mar-25 21:33S 33°02' E 152°01'1 0.6
2015-Mar-25 20:34S 33°02' E 152°02'1 0.9
2015-Mar-25 19:33S 33°03' E 152°03'1 0.8
2015-Mar-25 18:33S 33°04' E 152°03'1 1.2
2015-Mar-25 17:33S 33°05' E 152°04'1 1.3
2015-Mar-25 16:33S 33°06' E 152°04'1 1.3
2015-Mar-25 15:33S 33°07' E 152°04'1 1.3
2015-Mar-25 14:33S 33°09' E 152°05'1 1.2
2015-Mar-25 13:33S 33°10' E 152°05'1 1.2
2015-Mar-25 12:33S 33°11' E 152°06'1 1.1
2015-Mar-25 11:32S 33°12' E 152°06'1 1.4
2015-Mar-25 10:29S 33°13' E 152°07'2 2.2
2015-Mar-25 09:29S 33°14' E 152°09'1111.9
2015-Mar-25 08:33S 33°03' E 152°09'3 2.5
2015-Mar-25 07:33S 33°01' E 152°07'2 1.9
2015-Mar-25 06:33S 33°03' E 152°06'2 1.9
2015-Mar-25 05:33S 33°05' E 152°05'2 1.8
2015-Mar-25 04:33S 33°07' E 152°05'2 1.9
2015-Mar-25 03:33S 33°09' E 152°04'2 2.0
2015-Mar-25 02:33S 33°10' E 152°06'6 5.6
2015-Mar-25 01:33S 33°06' E 152°09'1111.5
2015-Mar-25 00:33S 32°57' E 152°18'9 9.3
2015-Mar-24 23:33S 32°50' E 152°26'2 1.8
2015-Mar-24 22:33S 32°52' E 152°25'2 1.9
2015-Mar-24 21:33S 32°54' E 152°24'2 2.0
2015-Mar-24 20:34S 32°55' E 152°23'2 2.2
2015-Mar-24 19:33S 32°57' E 152°22'2 2.4
2015-Mar-24 18:33S 32°59' E 152°20'2 2.2
2015-Mar-24 17:33S 33°01' E 152°18'2 2.1
2015-Mar-24 16:33S 33°02' E 152°16'2 1.9
2015-Mar-24 15:33S 33°03' E 152°14'1 1.5
2015-Mar-24 14:33S 33°04' E 152°13'1 0.8
2015-Mar-24 13:33S 33°05' E 152°13'0 0.5
2015-Mar-24 12:33S 33°05' E 152°13'0 0.4
2015-Mar-24 11:33S 33°05' E 152°14'1 0.5
2015-Mar-24 10:33S 33°06' E 152°14'1 1.1
2015-Mar-24 09:33S 33°06' E 152°15'7 7.4
2015-Mar-24 08:33S 33°09' E 152°07'4 4.2
2015-Mar-24 07:33S 33°13' E 152°07'2 1.6
2015-Mar-24 06:33S 33°12' E 152°08'2 1.6
2015-Mar-24 05:33S 33°11' E 152°10'2 2.0
2015-Mar-24 04:33S 33°10' E 152°11'2 2.1
2015-Mar-24 03:33S 33°08' E 152°11'2 2.0
2015-Mar-24 02:33S 33°06' E 152°12'2 1.9
2015-Mar-24 01:33S 33°04' E 152°11'9 9.2
2015-Mar-24 00:33S 33°06' E 152°00'4 4.4
2015-Mar-23 23:33S 33°09' E 151°56'1 0.7
2015-Mar-23 22:33S 33°09' E 151°57'1 0.6
2015-Mar-23 21:33S 33°09' E 151°58'1 0.6
2015-Mar-23 20:33S 33°08' E 151°58'1 0.7
2015-Mar-23 19:33S 33°08' E 151°59'1 0.7
2015-Mar-23 18:33S 33°07' E 151°60'1 1.2
2015-Mar-23 17:33S 33°07' E 152°01'1 1.4
2015-Mar-23 16:33S 33°06' E 152°02'2 1.6
2015-Mar-23 15:33S 33°05' E 152°04'2 1.5
2015-Mar-23 14:33S 33°05' E 152°06'1 1.4
2015-Mar-23 13:33S 33°04' E 152°07'1 1.3
2015-Mar-23 12:33S 33°03' E 152°09'1 1.3
2015-Mar-23 11:33S 33°03' E 152°10'1 1.2
2015-Mar-23 10:33S 33°02' E 152°11'1 1.1
2015-Mar-23 09:33S 33°01' E 152°12'1 1.3
2015-Mar-23 08:33S 33°01' E 152°13'8 7.7
2015-Mar-23 07:33S 33°03' E 152°05'1010.0
2015-Mar-23 06:33S 33°07' E 151°54'1 1.4
2015-Mar-23 05:33S 33°07' E 151°55'1 1.5
2015-Mar-23 04:33S 33°07' E 151°57'2 1.6
2015-Mar-23 03:33S 33°07' E 151°59'1 1.0
2015-Mar-23 02:33S 33°06' E 152°00'1 0.8
2015-Mar-23 01:33S 33°06' E 152°01'1 0.7
2015-Mar-23 00:33S 33°06' E 152°02'1 0.9
2015-Mar-22 23:33S 33°06' E 152°03'1 0.9
2015-Mar-22 22:33S 33°06' E 152°04'1 1.4
2015-Mar-22 21:33S 33°05' E 152°05'1 1.4
2015-Mar-22 20:33S 33°04' E 152°06'1 1.3
2015-Mar-22 19:33S 33°02' E 152°07'1 1.4
2015-Mar-22 18:32S 33°01' E 152°08'1 1.4
2015-Mar-22 17:33S 33°00' E 152°09'1 1.4
2015-Mar-22 16:33S 32°59' E 152°10'6 6.5
2015-Mar-22 15:33S 32°57' E 152°03'7 7.1
2015-Mar-22 14:33S 32°54' E 152°10'1313.2
2015-Mar-22 13:33S 32°51' E 152°25'1312.6
2015-Mar-22 12:33S 32°42' E 152°36'1513.6
2015-Mar-22 11:29S 32°29' E 152°44'  
Track history (hours):
 
Tides and Currents Weather Stations Pressure Air Temp Water Temp Dewpoint Dewpoint Depression Visibility Wind Speed Wind Dir Waves Ship Positions

Alpha Friendship

Last reported at 2015-Mar-28 15:33 UTC. Time now 2015-Mar-28 16:04 UTC.
Position S 33°03' E 152°10'.

Length 280 m; draft 8.6 m.

Type: Cargo ship. MMSI: 240965000.

Date/timePositionNaut miles runAvg speedWind from/ knotsBaromVisibWave heightAir tempDewpointWater temp
2015-Mar-28 15:33S 33°03' E 152°10'1 0.9
2015-Mar-28 14:33S 33°04' E 152°10'1 0.9
2015-Mar-28 13:33S 33°05' E 152°09'1 1.0
2015-Mar-28 12:34S 33°06' E 152°09'1 0.9
2015-Mar-28 11:33S 33°07' E 152°09'1 0.9
2015-Mar-28 10:33S 33°07' E 152°09'1 0.7
2015-Mar-28 09:33S 33°08' E 152°10'1 0.9
2015-Mar-28 08:33S 33°09' E 152°10'1 0.9
2015-Mar-28 07:33S 33°09' E 152°11'1 1.0
2015-Mar-28 06:33S 33°10' E 152°12'1 1.0
2015-Mar-28 05:33S 33°11' E 152°13'1 0.6
2015-Mar-28 04:33S 33°11' E 152°13'1 0.8
2015-Mar-28 03:33S 33°12' E 152°12'1 1.0
2015-Mar-28 02:33S 33°13' E 152°12'1 1.2
2015-Mar-28 01:28S 33°14' E 152°12'2 1.2
2015-Mar-28 00:04S 33°15' E 152°10'9 9.0
2015-Mar-27 23:04S 33°07' E 152°05'612.4
2015-Mar-27 22:33S 33°01' E 152°02'1 0.6
2015-Mar-27 21:33S 33°01' E 152°02'2 1.9
2015-Mar-27 20:33S 33°03' E 152°02'2 1.7
2015-Mar-27 19:33S 33°04' E 152°02'2 1.6
2015-Mar-27 18:33S 33°06' E 152°03'2 1.6
2015-Mar-27 17:33S 33°07' E 152°03'2 1.6
2015-Mar-27 16:33S 33°09' E 152°03'2 1.6
2015-Mar-27 15:33S 33°10' E 152°04'1 0.6
2015-Mar-27 14:33S 33°11' E 152°04'0 0.3
2015-Mar-27 13:33S 33°11' E 152°04'0 0.4
2015-Mar-27 12:33S 33°11' E 152°04'0 0.4
2015-Mar-27 11:33S 33°12' E 152°05'1 0.6
2015-Mar-27 10:33S 33°12' E 152°05'1 0.6
2015-Mar-27 09:33S 33°13' E 152°05'0 0.5
2015-Mar-27 08:33S 33°13' E 152°06'0 0.5
2015-Mar-27 07:33S 33°14' E 152°06'0 0.3
2015-Mar-27 06:33S 33°14' E 152°06'1 0.6
2015-Mar-27 05:33S 33°14' E 152°07'0 0.4
2015-Mar-27 04:27S 33°14' E 152°08'0 0.4
2015-Mar-27 03:31S 33°14' E 152°08'1 0.8
2015-Mar-27 02:33S 33°14' E 152°09'1 0.6
2015-Mar-27 01:29S 33°14' E 152°09'1 0.5
2015-Mar-27 00:11S 33°15' E 152°10'1 0.6
2015-Mar-26 23:13S 33°15' E 152°09'6 5.7
2015-Mar-26 22:08S 33°09' E 152°06'712.4
2015-Mar-26 21:33S 33°02' E 152°04'3 2.6
2015-Mar-26 20:33S 32°59' E 152°03'2 1.9
2015-Mar-26 19:33S 33°01' E 152°03'2 1.9
2015-Mar-26 18:33S 33°03' E 152°02'2 1.9
2015-Mar-26 17:33S 33°05' E 152°02'2 1.9
2015-Mar-26 16:33S 33°07' E 152°01'2 1.9
2015-Mar-26 15:33S 33°09' E 152°00'2 1.9
2015-Mar-26 14:33S 33°10' E 151°59'2 1.7
2015-Mar-26 13:33S 33°12' E 151°59'1 1.0
2015-Mar-26 12:33S 33°13' E 151°59'1 1.1
2015-Mar-26 11:33S 33°14' E 151°59'1 1.3
2015-Mar-26 10:33S 33°14' E 152°01'2 1.4
2015-Mar-26 09:11S 33°14' E 152°03'1 1.8
2015-Mar-26 08:33S 33°14' E 152°05'5 4.8
2015-Mar-26 07:33S 33°09' E 152°04'1111.1
2015-Mar-26 06:33S 32°58' E 151°60'1 0.7
2015-Mar-26 05:33S 32°59' E 152°00'1 0.6
2015-Mar-26 04:34S 32°59' E 152°01'1 0.5
2015-Mar-26 03:34S 32°60' E 152°01'1 0.6
2015-Mar-26 02:33S 33°00' E 152°01'0 0.4
2015-Mar-26 01:33S 33°01' E 152°01'0 0.4
2015-Mar-26 00:33S 33°01' E 152°01'0 0.2
2015-Mar-25 23:33S 33°02' E 152°01'0 0.2
2015-Mar-25 22:33S 33°02' E 152°01'0 0.3
2015-Mar-25 21:33S 33°02' E 152°01'1 0.6
2015-Mar-25 20:34S 33°02' E 152°02'1 0.9
2015-Mar-25 19:33S 33°03' E 152°03'1 0.8
2015-Mar-25 18:33S 33°04' E 152°03'1 1.2
2015-Mar-25 17:33S 33°05' E 152°04'1 1.3
2015-Mar-25 16:33S 33°06' E 152°04'1 1.3
2015-Mar-25 15:33S 33°07' E 152°04'1 1.3
2015-Mar-25 14:33S 33°09' E 152°05'1 1.2
2015-Mar-25 13:33S 33°10' E 152°05'1 1.2
2015-Mar-25 12:33S 33°11' E 152°06'1 1.1
2015-Mar-25 11:32S 33°12' E 152°06'1 1.4
2015-Mar-25 10:29S 33°13' E 152°07'2 2.2
2015-Mar-25 09:29S 33°14' E 152°09'1111.9
2015-Mar-25 08:33S 33°03' E 152°09'3 2.5
2015-Mar-25 07:33S 33°01' E 152°07'2 1.9
2015-Mar-25 06:33S 33°03' E 152°06'2 1.9
2015-Mar-25 05:33S 33°05' E 152°05'2 1.8
2015-Mar-25 04:33S 33°07' E 152°05'2 1.9
2015-Mar-25 03:33S 33°09' E 152°04'2 2.0
2015-Mar-25 02:33S 33°10' E 152°06'6 5.6
2015-Mar-25 01:33S 33°06' E 152°09'1111.5
2015-Mar-25 00:33S 32°57' E 152°18'9 9.3
2015-Mar-24 23:33S 32°50' E 152°26'2 1.8
2015-Mar-24 22:33S 32°52' E 152°25'2 1.9
2015-Mar-24 21:33S 32°54' E 152°24'2 2.0
2015-Mar-24 20:34S 32°55' E 152°23'2 2.2
2015-Mar-24 19:33S 32°57' E 152°22'2 2.4
2015-Mar-24 18:33S 32°59' E 152°20'2 2.2
2015-Mar-24 17:33S 33°01' E 152°18'2 2.1
2015-Mar-24 16:33S 33°02' E 152°16'2 1.9
2015-Mar-24 15:33S 33°03' E 152°14'1 1.5
2015-Mar-24 14:33S 33°04' E 152°13'1 0.8
2015-Mar-24 13:33S 33°05' E 152°13'0 0.5
2015-Mar-24 12:33S 33°05' E 152°13'0 0.4
2015-Mar-24 11:33S 33°05' E 152°14'1 0.5
2015-Mar-24 10:33S 33°06' E 152°14'1 1.1
2015-Mar-24 09:33S 33°06' E 152°15'7 7.4
2015-Mar-24 08:33S 33°09' E 152°07'4 4.2
2015-Mar-24 07:33S 33°13' E 152°07'2 1.6
2015-Mar-24 06:33S 33°12' E 152°08'2 1.6
2015-Mar-24 05:33S 33°11' E 152°10'2 2.0
2015-Mar-24 04:33S 33°10' E 152°11'2 2.1
2015-Mar-24 03:33S 33°08' E 152°11'2 2.0
2015-Mar-24 02:33S 33°06' E 152°12'2 1.9
2015-Mar-24 01:33S 33°04' E 152°11'9 9.2
2015-Mar-24 00:33S 33°06' E 152°00'4 4.4
2015-Mar-23 23:33S 33°09' E 151°56'1 0.7
2015-Mar-23 22:33S 33°09' E 151°57'1 0.6
2015-Mar-23 21:33S 33°09' E 151°58'1 0.6
2015-Mar-23 20:33S 33°08' E 151°58'1 0.7
2015-Mar-23 19:33S 33°08' E 151°59'1 0.7
2015-Mar-23 18:33S 33°07' E 151°60'1 1.2
2015-Mar-23 17:33S 33°07' E 152°01'1 1.4
2015-Mar-23 16:33S 33°06' E 152°02'2 1.6
2015-Mar-23 15:33S 33°05' E 152°04'2 1.5
2015-Mar-23 14:33S 33°05' E 152°06'1 1.4
2015-Mar-23 13:33S 33°04' E 152°07'1 1.3
2015-Mar-23 12:33S 33°03' E 152°09'1 1.3
2015-Mar-23 11:33S 33°03' E 152°10'1 1.2
2015-Mar-23 10:33S 33°02' E 152°11'1 1.1
2015-Mar-23 09:33S 33°01' E 152°12'1 1.3
2015-Mar-23 08:33S 33°01' E 152°13'8 7.7
2015-Mar-23 07:33S 33°03' E 152°05'1010.0
2015-Mar-23 06:33S 33°07' E 151°54'1 1.4
2015-Mar-23 05:33S 33°07' E 151°55'1 1.5
2015-Mar-23 04:33S 33°07' E 151°57'2 1.6
2015-Mar-23 03:33S 33°07' E 151°59'1 1.0
2015-Mar-23 02:33S 33°06' E 152°00'1 0.8
2015-Mar-23 01:33S 33°06' E 152°01'1 0.7
2015-Mar-23 00:33S 33°06' E 152°02'1 0.9
2015-Mar-22 23:33S 33°06' E 152°03'1 0.9
2015-Mar-22 22:33S 33°06' E 152°04'1 1.4
2015-Mar-22 21:33S 33°05' E 152°05'1 1.4
2015-Mar-22 20:33S 33°04' E 152°06'1 1.3
2015-Mar-22 19:33S 33°02' E 152°07'1 1.4
2015-Mar-22 18:32S 33°01' E 152°08'1 1.4
2015-Mar-22 17:33S 33°00' E 152°09'1 1.4
2015-Mar-22 16:33S 32°59' E 152°10'6 6.5
2015-Mar-22 15:33S 32°57' E 152°03'7 7.1
2015-Mar-22 14:33S 32°54' E 152°10'1313.2
2015-Mar-22 13:33S 32°51' E 152°25'1312.6
2015-Mar-22 12:33S 32°42' E 152°36'1513.6
2015-Mar-22 11:29S 32°29' E 152°44'  

Dump ship's entire track history